createdAt,value
2023-05-18T00:01:56.221Z,102248.22
2023-05-18T00:04:24.554Z,102253.94
2023-05-18T00:06:48.204Z,102256.75
2023-05-18T00:09:11.736Z,102264.47
2023-05-18T00:11:39.675Z,102265.19
2023-05-18T00:14:03.406Z,102267.53
2023-05-18T00:16:27.062Z,102274.81
2023-05-18T00:18:54.678Z,102279.16
2023-05-18T00:21:18.485Z,102272.06
2023-05-18T00:23:42.957Z,102270.63
2023-05-18T00:26:06.754Z,102277.41
2023-05-18T00:28:31.828Z,102278.19
2023-05-18T00:30:56.210Z,102280.16
2023-05-18T00:33:19.834Z,102289.13
2023-05-18T00:35:43.496Z,102286.66
2023-05-18T00:38:07.065Z,102282.47
2023-05-18T00:40:30.975Z,102283.56
2023-05-18T00:42:54.515Z,102279.47
2023-05-18T00:45:20.486Z,102277.84
2023-05-18T00:47:44.072Z,102279.72
2023-05-18T00:50:09.135Z,102283.16
2023-05-18T00:52:33.095Z,102291.94
2023-05-18T00:54:58.416Z,102291.75
2023-05-18T00:57:22.319Z,102291.84
2023-05-18T00:59:46.774Z,102295.03
2023-05-18T01:02:12.175Z,102296.69
2023-05-18T01:04:38.106Z,102305.06
2023-05-18T01:07:06.660Z,102294.50
2023-05-18T01:09:30.735Z,102301.19
2023-05-18T01:12:02.918Z,102300.44
2023-05-18T01:14:32.809Z,102310.28
2023-05-18T01:17:10.443Z,102311.47
2023-05-18T01:20:14.725Z,102315.19
2023-05-18T01:22:58.763Z,102313.56
2023-05-18T01:25:36.711Z,102315.78
2023-05-18T01:28:07.212Z,102315.06
2023-05-18T01:30:30.899Z,102320.75
2023-05-18T01:32:54.530Z,102325.03
2023-05-18T01:35:18.238Z,102320.88
2023-05-18T01:37:41.936Z,102318.34
2023-05-18T01:40:07.645Z,102317.53
2023-05-18T01:42:34.957Z,102313.78
2023-05-18T01:45:05.199Z,102313.94
2023-05-18T01:47:32.141Z,102314.06
2023-05-18T01:50:02.878Z,102312.59
2023-05-18T01:52:34.530Z,102311.78
2023-05-18T01:55:03.366Z,102311.75
2023-05-18T01:57:31.282Z,102315.00
2023-05-18T01:59:56.026Z,102310.50
2023-05-18T02:02:21.632Z,102319.34
2023-05-18T02:04:45.428Z,102316.06
2023-05-18T02:07:09.462Z,102325.25
2023-05-18T02:09:33.201Z,102324.66
2023-05-18T02:11:57.229Z,102320.25
2023-05-18T02:14:22.314Z,102323.13
2023-05-18T02:16:47.338Z,102324.19
2023-05-18T02:19:12.732Z,102313.53
2023-05-18T02:21:36.299Z,102327.19
2023-05-18T02:24:00.179Z,102329.31
2023-05-18T02:26:24.018Z,102324.72
2023-05-18T02:28:49.313Z,102328.31
2023-05-18T02:31:13.704Z,102324.41
2023-05-18T02:33:40.040Z,102328.25
2023-05-18T02:36:05.734Z,102325.03
2023-05-18T02:38:29.450Z,102334.09
2023-05-18T02:40:53.093Z,102340.03
2023-05-18T02:43:16.893Z,102336.13
2023-05-18T02:45:40.591Z,102338.44
2023-05-18T02:48:04.476Z,102338.63
2023-05-18T02:50:28.212Z,102342.50
2023-05-18T02:52:53.497Z,102341.75
2023-05-18T02:55:19.026Z,102342.22
2023-05-18T02:58:00.577Z,102342.50
2023-05-18T03:00:43.960Z,102339.03
2023-05-18T03:03:10.943Z,102341.97
2023-05-18T03:05:34.958Z,102350.16
2023-05-18T03:08:02.525Z,102344.44
2023-05-18T03:10:27.388Z,102349.06
2023-05-18T03:12:51.452Z,102344.31
2023-05-18T03:15:16.190Z,102352.22
2023-05-18T03:17:39.964Z,102350.47
2023-05-18T03:20:04.678Z,102353.06
2023-05-18T03:22:28.828Z,102357.13
2023-05-18T03:24:55.540Z,102349.47
2023-05-18T03:27:23.146Z,102355.56
2023-05-18T03:29:46.753Z,102352.78
2023-05-18T03:32:10.996Z,102356.84
2023-05-18T03:34:35.140Z,102352.38
2023-05-18T03:36:58.746Z,102355.75
2023-05-18T03:39:22.482Z,102369.31
2023-05-18T03:41:47.512Z,102359.41
2023-05-18T03:44:11.622Z,102359.06
2023-05-18T03:46:35.384Z,102365.97
2023-05-18T03:48:59.227Z,102366.00
2023-05-18T03:51:30.217Z,102369.50
2023-05-18T03:53:53.927Z,102371.31
2023-05-18T03:56:17.740Z,102365.66
2023-05-18T03:58:44.493Z,102371.00
2023-05-18T04:01:08.240Z,102380.63
2023-05-18T04:03:34.782Z,102375.28
2023-05-18T04:05:58.669Z,102376.50
2023-05-18T04:08:25.458Z,102374.50
2023-05-18T04:10:49.347Z,102383.34
2023-05-18T04:13:13.564Z,102377.81
2023-05-18T04:15:38.621Z,102374.91
2023-05-18T04:18:02.361Z,102378.25
2023-05-18T04:20:28.472Z,102380.81
2023-05-18T04:22:52.471Z,102385.69
2023-05-18T04:25:17.669Z,102383.16
2023-05-18T04:27:41.841Z,102383.31
2023-05-18T04:30:08.575Z,102389.19
2023-05-18T04:32:36.646Z,102388.63
2023-05-18T04:35:01.825Z,102389.91
2023-05-18T04:37:25.478Z,102402.13
2023-05-18T04:39:49.216Z,102400.34
2023-05-18T04:42:14.642Z,102400.16
2023-05-18T04:44:40.196Z,102400.44
2023-05-18T04:47:04.325Z,102400.63
2023-05-18T04:49:32.097Z,102411.22
2023-05-18T04:51:58.113Z,102416.44
2023-05-18T04:54:24.099Z,102407.66
2023-05-18T04:56:48.014Z,102412.97
2023-05-18T04:59:11.621Z,102415.25
2023-05-18T05:01:35.346Z,102405.81
2023-05-18T05:03:59.895Z,102413.03
2023-05-18T05:06:25.087Z,102417.94
2023-05-18T05:08:48.796Z,102415.50
2023-05-18T05:11:12.420Z,102413.88
2023-05-18T05:13:36.561Z,102413.16
2023-05-18T05:16:00.318Z,102418.44
2023-05-18T05:18:24.052Z,102408.59
2023-05-18T05:20:47.691Z,102412.59
2023-05-18T05:23:14.288Z,102411.34
2023-05-18T05:25:39.700Z,102408.88
2023-05-18T05:28:03.272Z,102405.69
2023-05-18T05:30:27.038Z,102405.59
2023-05-18T05:32:50.677Z,102411.28
2023-05-18T05:35:14.336Z,102405.00
2023-05-18T05:37:38.763Z,102415.84
2023-05-18T05:40:06.324Z,102415.72
2023-05-18T05:42:34.118Z,102415.38
2023-05-18T05:44:59.174Z,102417.97
2023-05-18T05:47:24.159Z,102428.97
2023-05-18T05:49:48.226Z,102428.22
2023-05-18T05:52:11.906Z,102418.75
2023-05-18T05:54:35.624Z,102429.75
2023-05-18T05:57:00.811Z,102429.66
2023-05-18T05:59:24.511Z,102429.13
2023-05-18T06:01:48.144Z,102435.59
2023-05-18T06:04:12.689Z,102426.97
2023-05-18T06:06:36.401Z,102429.69
2023-05-18T06:09:00.255Z,102419.91
2023-05-18T06:11:23.862Z,102428.44
2023-05-18T06:13:49.335Z,102421.31
2023-05-18T06:16:13.004Z,102418.75
2023-05-18T06:18:37.020Z,102419.78
2023-05-18T06:21:02.374Z,102418.50
2023-05-18T06:23:26.185Z,102420.44
2023-05-18T06:26:05.559Z,102419.53
2023-05-18T06:28:52.747Z,102419.03
2023-05-18T06:31:30.378Z,102417.81
2023-05-18T06:34:17.292Z,102424.13
2023-05-18T06:36:40.997Z,102420.69
2023-05-18T06:39:04.956Z,102417.59
2023-05-18T06:41:28.694Z,102432.31
2023-05-18T06:43:53.726Z,102421.91
2023-05-18T06:46:23.049Z,102428.09
2023-05-18T06:48:50.032Z,102421.75
2023-05-18T06:51:13.646Z,102422.50
2023-05-18T06:53:37.339Z,102427.53
2023-05-18T06:56:01.236Z,102436.03
2023-05-18T06:58:24.990Z,102436.06
2023-05-18T07:00:50.715Z,102432.69
2023-05-18T07:03:14.357Z,102428.81
2023-05-18T07:05:39.518Z,102435.34
2023-05-18T07:08:04.987Z,102436.00
2023-05-18T07:10:28.986Z,102426.63
2023-05-18T07:12:52.702Z,102427.47
2023-05-18T07:15:16.572Z,102427.22
2023-05-18T07:17:41.735Z,102430.66
2023-05-18T07:20:07.126Z,102433.13
2023-05-18T07:22:30.702Z,102428.84
2023-05-18T07:24:54.233Z,102422.50
2023-05-18T07:27:17.950Z,102430.44
2023-05-18T07:29:42.187Z,102422.28
2023-05-18T07:32:06.484Z,102422.25
2023-05-18T07:34:32.342Z,102417.56
2023-05-18T07:36:56.123Z,102425.44
2023-05-18T07:39:19.896Z,102417.03
2023-05-18T07:41:43.578Z,102426.69
2023-05-18T07:44:07.352Z,102418.41
2023-05-18T07:46:31.578Z,102426.59
2023-05-18T07:48:55.225Z,102419.41
2023-05-18T07:51:20.223Z,102415.94
2023-05-18T07:53:45.958Z,102422.53
2023-05-18T07:56:09.984Z,102421.75
2023-05-18T07:58:33.591Z,102426.06
2023-05-18T08:00:57.262Z,102425.19
2023-05-18T08:03:21.230Z,102423.31
2023-05-18T08:05:44.860Z,102423.63
2023-05-18T08:08:11.901Z,102420.13
2023-05-18T08:10:35.660Z,102427.69
2023-05-18T08:12:59.212Z,102427.09
2023-05-18T08:15:22.943Z,102425.03
2023-05-18T08:17:47.521Z,102429.06
2023-05-18T08:20:12.913Z,102429.38
2023-05-18T08:22:36.484Z,102427.88
2023-05-18T08:25:02.002Z,102437.56
2023-05-18T08:27:25.654Z,102432.16
2023-05-18T08:29:49.254Z,102439.06
2023-05-18T08:32:13.041Z,102434.09
2023-05-18T08:34:36.805Z,102434.41
2023-05-18T08:37:00.559Z,102432.75
2023-05-18T08:39:24.277Z,102432.31
2023-05-18T08:41:58.569Z,102432.38
2023-05-18T08:44:25.341Z,102432.75
2023-05-18T08:46:52.142Z,102434.56
2023-05-18T08:49:20.807Z,102425.84
2023-05-18T08:51:48.294Z,102428.44
2023-05-18T08:54:19.702Z,102430.88
2023-05-18T08:56:43.824Z,102428.97
2023-05-18T08:59:10.396Z,102422.81
2023-05-18T09:01:34.114Z,102424.84
2023-05-18T09:03:58.562Z,102430.75
2023-05-18T09:06:24.663Z,102434.47
2023-05-18T09:08:48.710Z,102432.97
2023-05-18T09:11:14.949Z,102435.44
2023-05-18T09:13:40.241Z,102433.22
2023-05-18T09:16:05.573Z,102435.22
2023-05-18T09:18:29.125Z,102425.25
2023-05-18T09:20:53.082Z,102425.19
2023-05-18T09:23:18.469Z,102423.41
2023-05-18T09:25:46.110Z,102410.78
2023-05-18T09:28:09.680Z,102416.72
2023-05-18T09:30:42.244Z,102414.16
2023-05-18T09:33:07.551Z,102419.38
2023-05-18T09:35:33.769Z,102416.56
2023-05-18T09:37:57.994Z,102419.06
2023-05-18T09:40:30.701Z,102411.53
2023-05-18T09:42:55.950Z,102413.88
2023-05-18T09:45:23.538Z,102405.91
2023-05-18T09:47:47.783Z,102397.41
2023-05-18T09:50:13.146Z,102401.81
2023-05-18T09:52:43.527Z,102406.75
2023-05-18T09:55:08.383Z,102396.41
2023-05-18T09:57:32.033Z,102402.53
2023-05-18T10:00:07.084Z,102410.94
2023-05-18T10:02:32.500Z,102403.91
2023-05-18T10:04:57.565Z,102399.09
2023-05-18T10:07:24.359Z,102402.81
2023-05-18T10:09:48.250Z,102401.94
2023-05-18T10:12:13.386Z,102394.41
2023-05-18T10:14:36.946Z,102389.19
2023-05-18T10:17:11.183Z,102388.00
2023-05-18T10:19:41.951Z,102386.41
2023-05-18T10:22:07.596Z,102380.69
2023-05-18T10:24:36.571Z,102379.53
2023-05-18T10:27:03.317Z,102373.88
2023-05-18T10:29:27.249Z,102368.84
2023-05-18T10:31:53.375Z,102370.66
2023-05-18T10:34:18.612Z,102373.16
2023-05-18T10:36:42.943Z,102365.91
2023-05-18T10:39:08.024Z,102364.75
2023-05-18T10:41:35.896Z,102365.63
2023-05-18T10:44:03.995Z,102370.88
2023-05-18T10:46:27.976Z,102358.25
2023-05-18T10:48:54.495Z,102367.97
2023-05-18T10:51:20.616Z,102362.69
2023-05-18T10:53:47.746Z,102359.03
2023-05-18T10:56:11.439Z,102351.97
2023-05-18T10:58:38.611Z,102339.72
2023-05-18T11:01:06.326Z,102346.72
2023-05-18T11:03:30.129Z,102345.88
2023-05-18T11:06:05.258Z,102350.72
2023-05-18T11:08:29.368Z,102348.75
2023-05-18T11:11:03.250Z,102350.47
2023-05-18T11:13:31.309Z,102354.34
2023-05-18T11:16:07.327Z,102352.59
2023-05-18T11:18:38.768Z,102347.81
2023-05-18T11:21:02.514Z,102350.06
2023-05-18T11:23:26.094Z,102340.63
2023-05-18T11:25:51.605Z,102355.78
2023-05-18T11:28:15.348Z,102345.16
2023-05-18T11:30:51.312Z,102347.03
2023-05-18T11:33:19.322Z,102338.56
2023-05-18T11:35:59.322Z,102341.63
2023-05-18T11:38:23.803Z,102333.53
2023-05-18T11:40:49.006Z,102338.97
2023-05-18T11:43:22.205Z,102343.88
2023-05-18T11:45:55.438Z,102336.25
2023-05-18T11:48:24.613Z,102345.97
2023-05-18T11:50:48.842Z,102343.09
2023-05-18T11:53:17.935Z,102338.84
2023-05-18T11:55:43.410Z,102340.41
2023-05-18T11:58:10.461Z,102342.78
2023-05-18T12:00:34.075Z,102335.47
2023-05-18T12:02:58.553Z,102339.72
2023-05-18T12:05:24.109Z,102340.72
2023-05-18T12:07:54.763Z,102334.75
2023-05-18T12:10:18.424Z,102332.81
2023-05-18T12:12:43.122Z,102338.00
2023-05-18T12:15:09.212Z,102323.34
2023-05-18T12:17:41.099Z,102319.47
2023-05-18T12:20:06.313Z,102326.66
2023-05-18T12:22:31.340Z,102326.00
2023-05-18T12:24:54.956Z,102334.78
2023-05-18T12:27:18.564Z,102319.72
2023-05-18T12:29:43.595Z,102326.75
2023-05-18T12:32:09.541Z,102321.69
2023-05-18T12:34:33.373Z,102318.31
2023-05-18T12:36:57.414Z,102318.41
2023-05-18T12:39:22.820Z,102312.84
2023-05-18T12:41:46.506Z,102307.34
2023-05-18T12:44:10.131Z,102307.72
2023-05-18T12:46:33.894Z,102307.47
2023-05-18T12:49:01.460Z,102312.63
2023-05-18T12:51:30.886Z,102306.50
2023-05-18T12:53:54.521Z,102306.03
2023-05-18T12:56:20.982Z,102303.53
2023-05-18T12:58:58.444Z,102316.16
2023-05-18T13:01:22.175Z,102304.78
2023-05-18T13:03:45.934Z,102299.72
2023-05-18T13:06:10.621Z,102295.53
2023-05-18T13:08:35.886Z,102299.13
2023-05-18T13:11:12.745Z,102296.88
2023-05-18T13:13:39.082Z,102291.09
2023-05-18T13:16:03.151Z,102295.91
2023-05-18T13:18:27.753Z,102299.47
2023-05-18T13:20:53.173Z,102294.91
2023-05-18T13:23:18.375Z,102294.03
2023-05-18T13:25:42.674Z,102283.97
2023-05-18T13:28:07.327Z,102291.31
2023-05-18T13:30:32.740Z,102297.63
2023-05-18T13:32:56.605Z,102290.34
2023-05-18T13:35:20.789Z,102298.47
2023-05-18T13:37:45.188Z,102281.66
2023-05-18T13:40:10.290Z,102279.69
2023-05-18T13:42:34.925Z,102280.91
2023-05-18T13:44:58.547Z,102285.50
2023-05-18T13:47:23.615Z,102276.84
2023-05-18T13:49:47.180Z,102285.84
2023-05-18T13:52:10.857Z,102281.53
2023-05-18T13:54:34.430Z,102275.69
2023-05-18T13:56:58.208Z,102270.84
2023-05-18T13:59:22.536Z,102266.94
2023-05-18T14:01:47.580Z,102273.50
2023-05-18T14:04:12.515Z,102267.59
2023-05-18T14:06:36.182Z,102257.91
2023-05-18T14:08:59.761Z,102255.28
2023-05-18T14:11:23.415Z,102256.47
2023-05-18T14:13:47.030Z,102257.22
2023-05-18T14:16:10.756Z,102259.16
2023-05-18T14:18:34.335Z,102265.03
2023-05-18T14:21:02.257Z,102254.56
2023-05-18T14:23:25.913Z,102255.75
2023-05-18T14:25:49.549Z,102253.00
2023-05-18T14:28:13.487Z,102249.81
2023-05-18T14:30:37.188Z,102255.50
2023-05-18T14:33:01.473Z,102249.50
2023-05-18T14:35:25.213Z,102246.44
2023-05-18T14:37:50.224Z,102246.91
2023-05-18T14:40:14.313Z,102253.75
2023-05-18T14:42:37.905Z,102244.94
2023-05-18T14:45:01.637Z,102236.16
2023-05-18T14:47:25.199Z,102237.53
2023-05-18T14:49:48.811Z,102244.81
2023-05-18T14:52:12.414Z,102236.78
2023-05-18T14:54:37.598Z,102244.38
2023-05-18T14:57:01.325Z,102244.56
2023-05-18T14:59:24.910Z,102241.88
2023-05-18T15:01:48.523Z,102247.00
2023-05-18T15:04:12.314Z,102246.59
2023-05-18T15:06:37.459Z,102243.66
2023-05-18T15:09:02.514Z,102256.06
2023-05-18T15:11:27.586Z,102249.34
2023-05-18T15:13:51.356Z,102243.06
2023-05-18T15:16:16.161Z,102254.56
2023-05-18T15:18:39.949Z,102249.78
2023-05-18T15:21:03.531Z,102247.31
2023-05-18T15:23:27.360Z,102239.66
2023-05-18T15:25:52.523Z,102235.00
2023-05-18T15:28:17.474Z,102230.63
2023-05-18T15:30:41.116Z,102238.66
2023-05-18T15:33:06.219Z,102235.56
2023-05-18T15:35:30.214Z,102243.84
2023-05-18T15:37:53.912Z,102236.31
2023-05-18T15:40:18.513Z,102241.47
2023-05-18T15:42:42.132Z,102235.09
2023-05-18T15:45:09.007Z,102234.13
2023-05-18T15:47:33.091Z,102231.28
2023-05-18T15:49:57.835Z,102232.47
2023-05-18T15:52:21.932Z,102234.22
2023-05-18T15:54:46.177Z,102237.16
2023-05-18T15:57:10.663Z,102227.00
2023-05-18T15:59:34.278Z,102232.63
2023-05-18T16:01:59.294Z,102227.38
2023-05-18T16:04:22.880Z,102229.56
2023-05-18T16:06:46.650Z,102229.34
2023-05-18T16:09:10.273Z,102225.00
2023-05-18T16:11:35.621Z,102226.69
2023-05-18T16:14:00.499Z,102223.00
2023-05-18T16:16:25.235Z,102227.31
2023-05-18T16:18:50.752Z,102224.88
2023-05-18T16:21:14.489Z,102214.13
2023-05-18T16:23:38.038Z,102223.28
2023-05-18T16:26:05.412Z,102220.84
2023-05-18T16:28:29.129Z,102231.28
2023-05-18T16:30:52.882Z,102214.66
2023-05-18T16:33:16.944Z,102229.63
2023-05-18T16:35:41.975Z,102227.28
2023-05-18T16:38:05.900Z,102232.72
2023-05-18T16:40:29.679Z,102231.34
2023-05-18T16:42:53.390Z,102232.22
2023-05-18T16:45:17.252Z,102230.19
2023-05-18T16:47:40.866Z,102234.31
2023-05-18T16:50:04.770Z,102229.44
2023-05-18T16:52:29.743Z,102226.47
2023-05-18T16:54:53.420Z,102226.16
2023-05-18T16:57:17.290Z,102234.69
2023-05-18T16:59:41.332Z,102226.88
2023-05-18T17:02:05.095Z,102230.16
2023-05-18T17:04:28.780Z,102224.00
2023-05-18T17:06:53.370Z,102229.03
2023-05-18T17:09:20.572Z,102225.31
2023-05-18T17:11:44.097Z,102226.41
2023-05-18T17:14:07.755Z,102222.72
2023-05-18T17:16:33.013Z,102230.59
2023-05-18T17:18:57.692Z,102227.00
2023-05-18T17:21:21.456Z,102230.13
2023-05-18T17:23:45.099Z,102227.81
2023-05-18T17:26:10.287Z,102227.44
2023-05-18T17:28:33.859Z,102226.41
2023-05-18T17:30:57.469Z,102222.38
2023-05-18T17:33:29.358Z,102222.13
2023-05-18T17:35:53.865Z,102220.97
2023-05-18T17:38:17.629Z,102231.97
2023-05-18T17:40:41.260Z,102221.22
2023-05-18T17:43:06.704Z,102222.72
2023-05-18T17:45:30.451Z,102223.09
2023-05-18T17:47:54.556Z,102227.06
2023-05-18T17:50:18.255Z,102225.75
2023-05-18T17:52:41.851Z,102222.44
2023-05-18T17:55:06.317Z,102221.78
2023-05-18T17:57:30.218Z,102224.25
2023-05-18T17:59:55.205Z,102233.91
2023-05-18T18:02:18.747Z,102225.25
2023-05-18T18:04:42.435Z,102228.44
2023-05-18T18:07:06.304Z,102229.34
2023-05-18T18:09:29.963Z,102236.34
2023-05-18T18:11:57.043Z,102232.16
2023-05-18T18:14:21.035Z,102239.72
2023-05-18T18:16:46.115Z,102229.09
2023-05-18T18:19:10.386Z,102235.19
2023-05-18T18:21:34.029Z,102233.16
2023-05-18T18:23:57.670Z,102233.94
2023-05-18T18:26:21.682Z,102245.59
2023-05-18T18:28:45.263Z,102238.56
2023-05-18T18:31:09.228Z,102246.66
2023-05-18T18:33:34.365Z,102245.97
2023-05-18T18:35:58.990Z,102249.28
2023-05-18T18:38:23.225Z,102252.41
2023-05-18T18:40:46.851Z,102242.91
2023-05-18T18:43:10.483Z,102245.28
2023-05-18T18:45:34.448Z,102248.16
2023-05-18T18:47:58.193Z,102248.22
2023-05-18T18:50:23.511Z,102251.16
2023-05-18T18:52:47.135Z,102249.19
2023-05-18T18:55:10.835Z,102253.06
2023-05-18T18:57:34.608Z,102255.41
2023-05-18T19:00:00.825Z,102254.91
2023-05-18T19:02:24.769Z,102265.25
2023-05-18T19:04:48.459Z,102260.94
2023-05-18T19:07:13.481Z,102270.31
2023-05-18T19:09:37.112Z,102270.13
2023-05-18T19:12:00.978Z,102276.50
2023-05-18T19:14:24.520Z,102277.22
2023-05-18T19:16:48.318Z,102276.22
2023-05-18T19:19:12.534Z,102276.03
2023-05-18T19:21:36.543Z,102276.78
2023-05-18T19:24:01.459Z,102287.44
2023-05-18T19:26:25.580Z,102288.13
2023-05-18T19:28:49.164Z,102285.34
2023-05-18T19:31:12.792Z,102287.69
2023-05-18T19:33:36.439Z,102287.38
2023-05-18T19:36:00.100Z,102294.31
2023-05-18T19:38:23.717Z,102289.59
2023-05-18T19:40:49.051Z,102296.28
2023-05-18T19:43:12.779Z,102300.97
2023-05-18T19:45:36.653Z,102306.72
2023-05-18T19:48:00.679Z,102303.81
2023-05-18T19:50:24.322Z,102307.38
2023-05-18T19:52:49.485Z,102311.38
2023-05-18T19:55:13.128Z,102311.38
2023-05-18T19:57:38.216Z,102317.97
2023-05-18T20:00:02.412Z,102314.31
2023-05-18T20:02:35.797Z,102319.72
2023-05-18T20:05:00.504Z,102323.72
2023-05-18T20:07:24.090Z,102329.66
2023-05-18T20:09:47.897Z,102319.06
2023-05-18T20:12:11.702Z,102320.09
2023-05-18T20:14:36.766Z,102331.56
2023-05-18T20:17:00.592Z,102330.38
2023-05-18T20:19:24.287Z,102333.09
2023-05-18T20:21:48.744Z,102325.94
2023-05-18T20:24:12.444Z,102334.97
2023-05-18T20:26:36.238Z,102338.25
2023-05-18T20:29:00.025Z,102332.75
2023-05-18T20:31:25.083Z,102335.88
2023-05-18T20:33:48.726Z,102339.97
2023-05-18T20:36:13.560Z,102343.19
2023-05-18T20:38:38.791Z,102341.56
2023-05-18T20:41:03.536Z,102342.88
2023-05-18T20:43:27.297Z,102342.53
2023-05-18T20:45:51.415Z,102350.94
2023-05-18T20:48:24.665Z,102351.44
2023-05-18T20:50:48.345Z,102351.09
2023-05-18T20:53:11.953Z,102346.09
2023-05-18T20:55:35.580Z,102349.28
2023-05-18T20:58:02.494Z,102351.91
2023-05-18T21:00:26.406Z,102342.66
2023-05-18T21:02:50.284Z,102349.22
2023-05-18T21:05:16.357Z,102348.28
2023-05-18T21:07:40.451Z,102345.97
2023-05-18T21:10:05.593Z,102345.56
2023-05-18T21:12:29.969Z,102343.00
2023-05-18T21:14:54.382Z,102347.28
2023-05-18T21:17:18.889Z,102348.63
2023-05-18T21:19:43.744Z,102355.41
2023-05-18T21:22:10.897Z,102345.69
2023-05-18T21:24:35.298Z,102348.69
2023-05-18T21:26:58.883Z,102344.72
2023-05-18T21:29:22.464Z,102345.31
2023-05-18T21:31:46.154Z,102345.91
2023-05-18T21:34:10.131Z,102347.34
2023-05-18T21:36:35.018Z,102351.47
2023-05-18T21:39:00.437Z,102348.59
2023-05-18T21:41:24.298Z,102355.34
2023-05-18T21:43:48.204Z,102352.69
2023-05-18T21:46:12.618Z,102352.78
2023-05-18T21:48:36.878Z,102354.13
2023-05-18T21:51:01.565Z,102348.34
2023-05-18T21:53:26.955Z,102349.41
2023-05-18T21:55:51.883Z,102349.91
2023-05-18T21:58:15.513Z,102352.00
2023-05-18T22:00:39.679Z,102346.81
2023-05-18T22:03:03.276Z,102346.25
2023-05-18T22:05:26.995Z,102342.09
2023-05-18T22:07:50.780Z,102344.31
2023-05-18T22:10:14.310Z,102335.84
2023-05-18T22:12:41.135Z,102343.16
2023-05-18T22:15:05.098Z,102333.75
2023-05-18T22:17:28.745Z,102346.44
2023-05-18T22:19:52.326Z,102341.69
2023-05-18T22:22:29.130Z,102346.69
2023-05-18T22:24:54.083Z,102352.75
2023-05-18T22:27:17.690Z,102348.25
2023-05-18T22:29:42.738Z,102360.03
2023-05-18T22:32:07.830Z,102349.38
2023-05-18T22:34:31.479Z,102347.31
2023-05-18T22:36:55.039Z,102346.41
2023-05-18T22:39:18.661Z,102349.44
2023-05-18T22:41:42.236Z,102344.59
2023-05-18T22:44:06.236Z,102349.09
2023-05-18T22:46:31.534Z,102343.97
2023-05-18T22:48:55.295Z,102343.66
2023-05-18T22:51:18.871Z,102349.00
2023-05-18T22:53:42.578Z,102346.25
2023-05-18T22:56:08.067Z,102343.84
2023-05-18T22:58:31.673Z,102347.31
2023-05-18T23:00:55.239Z,102343.03
2023-05-18T23:03:20.467Z,102348.69
2023-05-18T23:05:45.923Z,102337.25
2023-05-18T23:08:09.621Z,102340.41
2023-05-18T23:10:33.551Z,102333.53
2023-05-18T23:12:58.497Z,102333.22
2023-05-18T23:15:22.360Z,102330.47
2023-05-18T23:17:46.302Z,102338.59
2023-05-18T23:20:13.020Z,102335.13
2023-05-18T23:22:36.704Z,102338.16
2023-05-18T23:25:00.372Z,102327.66
2023-05-18T23:27:24.074Z,102336.53
2023-05-18T23:29:47.739Z,102331.75
2023-05-18T23:32:11.447Z,102327.06
2023-05-18T23:34:36.325Z,102329.13
2023-05-18T23:37:06.519Z,102328.78
2023-05-18T23:39:31.606Z,102325.25
2023-05-18T23:41:56.950Z,102329.47
2023-05-18T23:44:21.665Z,102327.50
2023-05-18T23:46:46.054Z,102335.31
2023-05-18T23:49:10.642Z,102329.22
2023-05-18T23:51:36.763Z,102333.22
2023-05-18T23:54:05.087Z,102325.91
2023-05-18T23:56:30.764Z,102326.63
2023-05-18T23:58:55.120Z,102334.78
